Time;durP1;ratioP1;P1;durP2;ratioP2;P2;SDS_P1;SDS_P2;PMS_P1;PMS_P2;Temp;Humidity;BMP_temperature;BMP_pressure;BME280_temperature;BME280_humidity;BME280_pressure;Samples;Min_cycle;Max_cycle;Signal;HPM_P1;HPM_P2
2021/04/24 07:01:41;;;;;;;15.77;5.60;;;;;;;15.60;36.01;99506.63;5382924;23;20134;-72
2021/04/24 07:04:06;;;;;;;11.48;6.45;;;;;;;16.13;34.82;99504.31;4952539;29;20543;-70
2021/04/24 07:06:32;;;;;;;10.43;6.40;;;;;;;17.27;32.90;99506.91;4953890;29;20023;-70
2021/04/24 07:08:57;;;;;;;10.45;6.55;;;;;;;17.87;31.31;99515.34;4953950;29;20055;-70
2021/04/24 07:11:22;;;;;;;10.23;6.13;;;;;;;18.28;30.87;99512.97;4953789;29;20074;-70
2021/04/24 07:13:48;;;;;;;17.27;7.13;;;;;;;18.65;30.83;99508.00;4954001;29;20031;-70
2021/04/24 07:16:13;;;;;;;13.05;5.90;;;;;;;18.65;30.11;99513.25;4961752;23;20055;-71
2021/04/24 07:18:43;;;;;;;12.75;5.90;;;;;;;18.48;30.57;99506.06;4953946;29;20035;-71
2021/04/24 07:21:09;;;;;;;14.07;6.63;;;;;;;17.84;31.57;99518.06;4953879;28;20042;-71
2021/04/24 07:23:37;;;;;;;11.95;6.20;;;;;;;19.75;28.53;99514.00;4954043;28;20019;-71
2021/04/24 07:26:03;;;;;;;12.40;6.10;;;;;;;21.29;26.64;99508.56;4953805;28;20065;-71
2021/04/24 07:28:29;;;;;;;10.63;5.25;;;;;;;22.32;25.11;99504.09;4953968;28;20024;-72
2021/04/24 07:30:54;;;;;;;10.80;5.93;;;;;;;22.58;25.12;99501.84;4953631;29;20031;-74
2021/04/24 07:33:22;;;;;;;13.48;5.90;;;;;;;22.35;24.36;99507.53;4953628;28;20021;-72
2021/04/24 07:35:48;;;;;;;12.60;6.45;;;;;;;20.74;26.01;99506.00;4953673;28;20499;-72
2021/04/24 07:38:13;;;;;;;7.43;5.68;;;;;;;20.13;27.26;99506.19;4953725;28;20035;-72
2021/04/24 07:40:38;;;;;;;13.35;6.50;;;;;;;20.89;27.20;99498.31;4953629;29;20027;-72
2021/04/24 07:43:04;;;;;;;9.30;5.72;;;;;;;22.18;25.36;99498.72;4953528;28;20420;-72
2021/04/24 07:45:29;;;;;;;15.38;5.88;;;;;;;23.21;23.42;99496.50;4953733;28;20039;-72
2021/04/24 07:47:54;;;;;;;12.02;5.97;;;;;;;21.87;24.56;99503.91;4955793;28;20110;-72
2021/04/24 07:50:20;;;;;;;9.98;5.40;;;;;;;22.84;24.70;99495.91;4957292;29;20078;-72
2021/04/24 07:52:46;;;;;;;8.43;5.70;;;;;;;24.66;21.53;99489.41;4957260;28;20030;-72
2021/04/24 07:55:12;;;;;;;8.02;5.70;;;;;;;23.54;22.86;99493.63;4957345;28;20073;-72
2021/04/24 07:57:38;;;;;;;10.32;6.07;;;;;;;23.07;23.51;99488.50;4957212;28;20469;-72
2021/04/24 08:00:06;;;;;;;9.70;5.43;;;;;;;23.05;22.95;99490.38;4957023;28;20043;-72
2021/04/24 08:02:31;;;;;;;9.73;5.72;;;;;;;23.12;22.81;99478.50;4956970;28;20484;-72
2021/04/24 08:04:56;;;;;;;9.15;5.75;;;;;;;23.81;22.89;99475.25;4956943;28;20034;-72
2021/04/24 08:07:22;;;;;;;12.07;6.15;;;;;;;23.59;23.20;99472.19;4956987;29;20027;-72
2021/04/24 08:09:47;;;;;;;13.77;5.82;;;;;;;24.03;22.17;99473.94;4956880;28;20030;-72
2021/04/24 08:12:12;;;;;;;11.70;6.15;;;;;;;23.23;23.21;99484.00;4956985;28;20027;-72
2021/04/24 08:14:38;;;;;;;8.93;6.05;;;;;;;22.37;24.80;99476.59;4956812;28;20511;-72
2021/04/24 08:17:03;;;;;;;13.05;5.80;;;;;;;24.46;22.34;99465.94;4956712;29;20034;-72
2021/04/24 08:19:29;;;;;;;11.63;5.30;;;;;;;25.91;20.14;99473.97;4956828;28;20027;-72
2021/04/24 08:21:55;;;;;;;9.65;5.68;;;;;;;26.81;19.45;99476.31;4956562;28;20384;-72
2021/04/24 08:24:21;;;;;;;13.93;6.43;;;;;;;24.36;22.13;99482.44;4956629;28;20544;-72
2021/04/24 08:26:46;;;;;;;8.15;5.00;;;;;;;23.95;21.52;99476.22;4956674;28;20113;-72
2021/04/24 08:29:12;;;;;;;10.05;5.85;;;;;;;26.38;20.01;99463.47;4956702;29;20027;-73
2021/04/24 08:31:37;;;;;;;10.02;6.47;;;;;;;25.70;20.82;99471.81;4956429;28;20090;-72
2021/04/24 08:34:03;;;;;;;8.90;6.22;;;;;;;26.38;19.65;99463.47;4956477;29;20110;-72
2021/04/24 08:36:30;;;;;;;12.30;6.57;;;;;;;26.38;18.62;99463.47;4956561;28;20041;-72
2021/04/24 08:38:56;;;;;;;14.13;5.50;;;;;;;26.34;18.63;99456.69;4956468;28;20111;-72
2021/04/24 08:41:23;;;;;;;13.65;7.22;;;;;;;26.07;19.87;99461.34;4956276;28;20046;-72
2021/04/24 08:43:49;;;;;;;12.93;5.40;;;;;;;26.13;19.63;99456.41;4956215;28;20030;-72
2021/04/24 08:46:16;;;;;;;10.80;5.72;;;;;;;25.61;20.24;99457.38;4956179;28;20110;-72
2021/04/24 08:48:42;;;;;;;13.63;6.20;;;;;;;26.41;18.97;99446.47;4956443;28;20111;-72
2021/04/24 08:51:07;;;;;;;14.27;5.82;;;;;;;25.83;19.13;99456.78;4956092;28;20672;-73
2021/04/24 08:53:32;;;;;;;17.45;6.22;;;;;;;24.04;20.86;99454.47;4956094;29;20033;-72
2021/04/24 08:55:58;;;;;;;10.38;5.35;;;;;;;23.98;21.09;99444.25;4956089;28;20027;-72
2021/04/24 08:58:23;;;;;;;8.90;5.35;;;;;;;27.16;17.67;99443.59;4955533;28;20559;-72
2021/04/24 09:00:52;;;;;;;15.50;7.85;;;;;;;26.48;18.41;99446.91;4955939;28;20054;-72
2021/04/24 09:03:21;;;;;;;11.57;6.15;;;;;;;25.12;19.45;99449.28;4955823;28;20015;-72
2021/04/24 09:05:48;;;;;;;10.33;6.00;;;;;;;24.55;20.40;99452.13;4955884;28;20074;-72
2021/04/24 09:08:13;;;;;;;10.52;6.05;;;;;;;26.23;18.85;99432.69;4955863;28;20038;-72
2021/04/24 09:10:38;;;;;;;11.90;6.30;;;;;;;27.71;17.35;99427.88;4955819;29;20031;-73
2021/04/24 09:13:05;;;;;;;8.90;5.60;;;;;;;27.64;17.52;99438.97;4955788;29;20054;-72
2021/04/24 09:15:30;;;;;;;10.65;5.65;;;;;;;27.90;16.39;99428.16;4955726;28;20293;-72
2021/04/24 09:17:57;;;;;;;9.30;5.68;;;;;;;28.29;16.03;99424.09;4955639;29;20023;-71
2021/04/24 09:20:25;;;;;;;10.50;5.22;;;;;;;25.81;17.90;99437.44;4955627;28;20027;-71
2021/04/24 09:22:56;;;;;;;12.88;6.20;;;;;;;29.96;14.54;99412.72;4955701;28;20023;-71
2021/04/24 09:25:35;;;;;;;13.27;5.43;;;;;;;29.38;14.64;99418.59;4955596;28;20035;-71
2021/04/24 09:28:01;;;;;;;;;;;;;;;28.76;14.56;99415.84;4956012;29;20037;-71
2021/04/24 09:30:30;;;;;;;8.40;5.43;;;;;;;28.81;14.71;99418.97;4955650;28;19992;-71
2021/04/24 09:33:12;;;;;;;12.38;5.93;;;;;;;27.19;16.27;99424.75;4954292;29;20106;-71
2021/04/24 09:35:43;;;;;;;10.32;5.25;;;;;;;29.39;14.72;99412.25;4954452;29;20123;-71
2021/04/24 09:38:10;;;;;;;15.68;6.28;;;;;;;30.14;13.49;99402.25;4955376;28;20074;-71
2021/04/24 09:40:36;;;;;;;20.55;15.02;;;;;;;29.51;14.49;99412.22;4955232;28;20114;-72
2021/04/24 09:43:07;;;;;;;10.88;6.28;;;;;;;29.75;13.30;99399.41;4955166;28;20551;-71
2021/04/24 09:45:39;;;;;;;8.48;5.35;;;;;;;30.28;13.46;99388.50;4955364;28;20405;-71
2021/04/24 09:48:17;;;;;;;10.15;5.65;;;;;;;31.41;12.64;99394.13;4955207;28;20027;-71
2021/04/24 09:50:42;;;;;;;10.52;5.53;;;;;;;25.64;17.10;99404.09;4955093;28;20563;-71
2021/04/24 09:53:25;;;;;;;12.65;6.10;;;;;;;24.65;17.58;99402.03;4954997;28;20115;-71
2021/04/24 09:55:52;;;;;;;12.05;6.00;;;;;;;28.12;14.47;99384.63;4955138;28;20086;-71
2021/04/24 09:58:29;;;;;;;11.30;5.93;;;;;;;28.78;14.12;99387.25;4955065;28;20111;-71
2021/04/24 10:01:20;;;;;;;10.05;5.78;;;;;;;28.48;15.94;99379.94;4954819;28;20034;-71
2021/04/24 10:03:48;;;;;;;7.80;6.05;;;;;;;26.87;17.14;99374.78;4955023;28;20400;-71
2021/04/24 10:06:27;;;;;;;12.77;5.85;;;;;;;28.68;15.12;99373.84;4954966;28;20075;-71
2021/04/24 10:09:30;;;;;;;10.77;5.85;;;;;;;28.33;14.81;99366.88;4954596;28;20027;-71
2021/04/24 10:12:10;;;;;;;14.13;5.90;;;;;;;27.24;16.08;99364.03;4954579;28;20492;-71
2021/04/24 10:14:44;;;;;;;16.73;6.20;;;;;;;27.85;15.15;99361.91;4954616;28;20118;-71
2021/04/24 10:17:15;;;;;;;15.20;5.85;;;;;;;29.35;14.67;99357.47;4954735;28;20086;-71
2021/04/24 10:19:41;;;;;;;12.02;5.75;;;;;;;31.25;13.05;99348.31;4947241;28;20029;-72
2021/04/24 10:22:10;;;;;;;9.80;6.18;;;;;;;30.06;13.79;99348.59;4967177;28;20030;-71
2021/04/24 10:24:36;;;;;;;11.07;6.57;;;;;;;28.36;14.85;99350.66;4963953;28;20031;-72
2021/04/24 10:27:03;;;;;;;8.20;5.60;;;;;;;27.70;16.11;99347.09;4959082;28;20086;-71
2021/04/24 10:29:28;;;;;;;9.93;5.80;;;;;;;27.68;16.62;99344.56;4935657;28;20389;-71
2021/04/24 10:31:54;;;;;;;15.50;6.35;;;;;;;24.22;19.20;99352.66;4958569;28;20031;-71
2021/04/24 10:34:20;;;;;;;19.23;6.43;;;;;;;23.96;19.96;99350.84;4965267;28;20448;-71
2021/04/24 10:36:46;;;;;;;13.18;6.70;;;;;;;24.50;19.47;99341.13;4960333;28;20041;-71
2021/04/24 10:39:20;;;;;;;12.15;6.22;;;;;;;27.62;16.50;99328.25;4956633;28;20031;-71
2021/04/24 10:41:55;;;;;;;10.15;6.07;;;;;;;27.93;16.81;99337.31;4939639;29;20035;-71
2021/04/24 10:44:22;;;;;;;12.20;6.15;;;;;;;26.29;17.47;99331.28;4944441;28;20042;-71
2021/04/24 10:46:49;;;;;;;10.13;6.65;;;;;;;26.22;16.49;99335.34;4948080;29;20388;-71
2021/04/24 10:49:26;;;;;;;12.45;6.30;;;;;;;27.62;16.82;99333.56;4941959;29;20042;-71
2021/04/24 10:52:07;;;;;;;15.48;6.53;;;;;;;28.89;15.29;99328.47;4934746;29;20645;-72
2021/04/24 10:54:39;;;;;;;11.63;6.43;;;;;;;28.16;15.17;99324.78;4947442;28;20023;-71
2021/04/24 10:57:42;;;;;;;10.27;7.15;;;;;;;25.95;18.04;99326.75;4964989;28;20063;-71
2021/04/24 11:00:12;;;;;;;14.48;7.18;;;;;;;27.61;16.44;99315.91;4962958;28;20384;-72
2021/04/24 11:02:52;;;;;;;10.68;5.93;;;;;;;28.79;15.58;99325.75;4950608;28;20412;-72
2021/04/24 11:05:34;;;;;;;16.98;7.35;;;;;;;21.61;22.81;99339.94;4952659;28;20035;-72
2021/04/24 11:08:14;;;;;;;16.05;6.22;;;;;;;26.69;18.49;99316.84;4941316;29;20019;-71
2021/04/24 11:10:48;;;;;;;9.60;6.88;;;;;;;25.79;20.10;99314.56;4941731;28;20031;-71
2021/04/24 11:13:16;;;;;;;14.43;6.95;;;;;;;27.12;17.82;99309.09;4945297;28;20034;-72
2021/04/24 11:15:43;;;;;;;10.32;6.35;;;;;;;27.77;16.23;99300.41;4949283;28;20036;-72
2021/04/24 11:18:11;;;;;;;17.15;7.07;;;;;;;25.65;19.76;99306.72;4942641;29;20027;-73
2021/04/24 11:21:01;;;;;;;13.02;6.57;;;;;;;27.51;16.68;99305.16;4942095;28;20024;-74
2021/04/24 11:23:35;;;;;;;13.73;6.45;;;;;;;27.36;16.82;99296.53;4940652;29;20083;-74
2021/04/24 11:26:02;;;;;;;11.63;6.70;;;;;;;27.25;17.00;99298.34;4950659;28;20048;-73
2021/04/24 11:28:27;;;;;;;12.98;6.25;;;;;;;26.97;17.76;99294.28;4948712;29;20032;-74
2021/04/24 11:31:00;;;;;;;13.98;7.40;;;;;;;22.26;20.60;99305.56;4943521;29;20031;-73
2021/04/24 11:33:44;;;;;;;16.33;8.25;;;;;;;22.22;21.33;99299.63;4954090;29;20090;-73
2021/04/24 11:36:13;;;;;;;14.82;6.80;;;;;;;24.36;19.78;99290.84;4946458;29;20049;-71
2021/04/24 11:38:57;;;;;;;11.38;6.65;;;;;;;25.56;19.30;99283.50;4945490;28;20036;-74
2021/04/24 11:41:25;;;;;;;13.07;7.05;;;;;;;26.12;18.10;99278.56;4939646;29;20038;-74
2021/04/24 11:43:51;;;;;;;11.15;7.88;;;;;;;27.11;18.83;99275.47;4951361;28;20626;-78
2021/04/24 11:46:36;;;;;;;13.95;7.75;;;;;;;26.90;17.32;99284.16;4936702;29;20032;-73
2021/04/24 11:49:09;;;;;;;19.92;7.07;;;;;;;26.60;17.43;99275.88;4953096;29;20496;-76
2021/04/24 11:51:55;;;;;;;11.68;6.50;;;;;;;26.90;18.28;99273.50;4941190;29;20034;-74
2021/04/24 11:54:29;;;;;;;13.68;7.05;;;;;;;26.80;17.63;99272.53;4947608;28;20082;-74
2021/04/24 11:56:58;;;;;;;18.65;7.07;;;;;;;27.23;17.73;99269.22;4952038;29;20042;-74
2021/04/24 11:59:29;;;;;;;12.73;6.60;;;;;;;25.99;18.80;99269.78;4941028;28;20039;-74
2021/04/24 12:02:02;;;;;;;11.65;7.57;;;;;;;24.23;19.37;99277.56;4950776;28;20405;-73
2021/04/24 12:04:35;;;;;;;12.52;6.93;;;;;;;23.18;20.82;99269.25;4948263;29;20032;-72
2021/04/24 12:07:05;;;;;;;13.63;7.22;;;;;;;22.69;21.20;99266.09;4942127;28;20034;-73
2021/04/24 12:09:45;;;;;;;10.27;7.30;;;;;;;22.88;21.63;99265.84;4953352;29;20027;-72
2021/04/24 12:12:11;;;;;;;15.85;7.82;;;;;;;22.15;22.07;99266.59;4937421;29;20069;-69
2021/04/24 12:14:37;;;;;;;12.45;7.53;;;;;;;22.06;22.28;99264.44;4959112;28;20069;-71
2021/04/24 12:17:08;;;;;;;14.50;7.35;;;;;;;22.22;22.15;99262.66;4940416;29;20036;-72
2021/04/24 12:19:37;;;;;;;14.43;7.20;;;;;;;21.88;21.51;99252.31;4940862;29;20031;-73
2021/04/24 12:22:05;;;;;;;13.05;7.63;;;;;;;21.80;22.32;99256.19;4949344;28;20458;-72
2021/04/24 12:24:32;;;;;;;13.05;7.47;;;;;;;21.81;22.77;99252.66;4948183;29;20024;-72
2021/04/24 12:26:58;;;;;;;12.48;7.07;;;;;;;22.12;22.27;99250.06;4942120;28;20028;-73
2021/04/24 12:29:48;;;;;;;14.20;7.43;;;;;;;21.39;23.44;99244.50;4952963;29;20038;-73
2021/04/24 12:32:15;;;;;;;12.38;7.13;;;;;;;21.24;23.15;99239.09;4945225;28;20503;-73
2021/04/24 12:34:41;;;;;;;13.60;6.95;;;;;;;20.79;23.30;99245.00;4943921;28;20043;-72
2021/04/24 12:37:13;;;;;;;13.90;7.20;;;;;;;21.40;22.59;99238.28;4952914;29;20027;-72
2021/04/24 12:39:39;;;;;;;13.15;6.40;;;;;;;21.60;22.12;99232.75;4940862;29;20112;-72
2021/04/24 12:42:05;;;;;;;12.98;6.70;;;;;;;21.65;22.27;99235.97;4948833;29;20028;-71
2021/04/24 12:44:32;;;;;;;31.52;19.85;;;;;;;21.98;22.19;99227.09;4947838;29;20054;-71
2021/04/24 12:46:58;;;;;;;22.85;9.90;;;;;;;21.70;21.27;99228.66;4941916;28;20166;-71
2021/04/24 12:49:24;;;;;;;16.75;6.35;;;;;;;21.34;20.98;99221.00;4952740;29;20495;-71
2021/04/24 12:52:00;;;;;;;13.60;6.05;;;;;;;22.19;21.04;99215.34;4942285;29;20034;-76
2021/04/24 12:54:25;;;;;;;15.02;6.40;;;;;;;22.27;22.01;99205.16;4945814;28;20023;-73
2021/04/24 12:56:50;;;;;;;12.45;7.18;;;;;;;20.62;22.64;99216.91;4950619;29;20534;-73
2021/04/24 12:59:22;;;;;;;12.98;6.72;;;;;;;21.30;21.09;99214.16;4940081;28;20024;-73
2021/04/24 13:01:49;;;;;;;13.85;7.03;;;;;;;20.10;22.69;99216.06;4950725;28;20082;-72
2021/04/24 13:04:14;;;;;;;10.90;6.80;;;;;;;19.92;22.51;99212.53;4945308;29;20023;-73
2021/04/24 13:06:53;;;;;;;9.80;6.03;;;;;;;20.98;22.79;99200.97;4943692;29;20034;-73
2021/04/24 13:09:20;;;;;;;11.02;5.35;;;;;;;21.22;20.54;99201.41;4952452;29;20024;-73
2021/04/24 13:11:52;;;;;;;8.32;5.18;;;;;;;21.20;21.05;99186.63;4941148;28;20767;-73
2021/04/24 13:14:26;;;;;;;23.50;11.55;;;;;;;21.19;20.58;99185.78;4960716;28;20027;-73
2021/04/24 13:16:53;;;;;;;7.70;5.38;;;;;;;21.34;21.52;99177.97;4992828;23;20137;-73
2021/04/24 13:19:21;;;;;;;11.93;6.55;;;;;;;21.23;22.06;99187.31;4965383;28;20436;-78
2021/04/24 13:21:49;;;;;;;13.38;6.07;;;;;;;21.57;20.15;99180.19;4959054;28;20066;-74
2021/04/24 13:24:20;;;;;;;12.95;5.85;;;;;;;21.72;21.06;99184.59;4966016;28;20055;-74
2021/04/24 13:26:46;;;;;;;10.95;5.88;;;;;;;21.65;19.40;99180.56;4965342;28;20035;-74
2021/04/24 13:29:15;;;;;;;12.15;6.13;;;;;;;21.46;20.10;99172.00;4968094;28;20035;-74
2021/04/24 13:31:41;;;;;;;;;;;;;;;21.02;18.86;99167.38;4970664;28;20551;-71
2021/04/24 13:34:13;;;;;;;15.23;8.88;;;;;;;21.09;19.83;99167.91;4962934;28;20000;-71
2021/04/24 13:36:38;;;;;;;10.38;5.40;;;;;;;21.13;20.04;99161.53;4962641;28;20023;-71
2021/04/24 13:39:03;;;;;;;13.05;5.00;;;;;;;20.35;20.41;99170.91;4970482;28;20022;-70
2021/04/24 13:41:38;;;;;;;5.82;4.68;;;;;;;20.18;19.65;99172.66;4958317;28;20029;-70
2021/04/24 13:44:10;;;;;;;5.68;3.95;;;;;;;20.91;19.14;99164.50;4966968;28;20037;-70
2021/04/24 13:46:52;;;;;;;8.15;4.30;;;;;;;20.42;20.17;99162.66;4966887;28;20046;-71
2021/04/24 13:49:19;;;;;;;7.97;4.65;;;;;;;20.44;19.72;99166.03;4958230;28;20537;-70
2021/04/24 13:51:45;;;;;;;10.70;5.32;;;;;;;19.55;19.88;99164.38;4969403;28;20481;-70
2021/04/24 13:54:10;;;;;;;8.77;5.25;;;;;;;19.42;19.29;99169.34;4963082;28;20030;-70
2021/04/24 13:56:36;;;;;;;7.97;4.63;;;;;;;19.54;19.48;99167.94;4962438;28;20023;-70
2021/04/24 13:59:06;;;;;;;8.90;4.10;;;;;;;19.94;17.70;99150.22;4969860;28;20101;-70
2021/04/24 14:01:33;;;;;;;7.88;4.07;;;;;;;19.95;17.43;99162.44;4957896;28;20046;-69
2021/04/24 14:03:58;;;;;;;5.72;3.92;;;;;;;19.65;16.75;99165.66;4967343;28;20078;-69
2021/04/24 14:06:23;;;;;;;4.60;3.33;;;;;;;19.55;16.69;99161.75;4964712;28;20030;-69
2021/04/24 14:08:49;;;;;;;4.82;3.45;;;;;;;20.45;16.23;99154.59;4960739;28;20078;-69
2021/04/24 14:11:14;;;;;;;11.60;3.75;;;;;;;20.64;15.50;99143.94;4970223;28;20030;-69
2021/04/24 14:13:39;;;;;;;4.53;3.22;;;;;;;20.84;16.55;99147.28;4963933;28;20094;-69
2021/04/24 14:16:07;;;;;;;11.35;3.70;;;;;;;21.08;18.14;99134.56;4966141;28;20038;-70
2021/04/24 14:18:32;;;;;;;9.18;3.45;;;;;;;21.04;17.42;99139.19;4954481;28;20544;-69
2021/04/24 14:20:57;;;;;;;6.47;3.65;;;;;;;21.08;18.25;99134.56;4968720;28;20109;-69
2021/04/24 14:23:23;;;;;;;3.80;3.30;;;;;;;20.46;17.12;99137.88;4957639;28;20031;-69
2021/04/24 14:25:48;;;;;;;5.85;3.55;;;;;;;19.74;17.02;99138.91;4955683;28;20492;-69
2021/04/24 14:28:13;;;;;;;6.65;3.60;;;;;;;20.36;16.70;99135.81;4954427;28;20029;-69
2021/04/24 14:30:39;;;;;;;5.85;2.95;;;;;;;20.61;16.01;99119.59;4966107;28;20038;-69
2021/04/24 14:33:04;;;;;;;6.50;4.38;;;;;;;20.69;17.90;99122.63;4958163;28;20520;-68
2021/04/24 14:35:29;;;;;;;8.18;4.13;;;;;;;21.03;18.70;99130.44;4970329;28;20023;-69
2021/04/24 14:37:55;;;;;;;11.27;5.15;;;;;;;20.58;18.66;99123.22;4960351;28;20443;-68
2021/04/24 14:40:21;;;;;;;9.57;5.00;;;;;;;19.73;19.99;99126.69;4962532;28;20571;-68
2021/04/24 14:42:46;;;;;;;14.18;5.65;;;;;;;19.57;19.86;99133.59;4966993;28;20072;-71
2021/04/24 14:45:12;;;;;;;8.30;5.70;;;;;;;20.10;19.69;99109.03;4957198;28;20039;-69
2021/04/24 14:47:37;;;;;;;14.98;6.40;;;;;;;19.70;20.34;99126.84;4968254;28;20374;-69
2021/04/24 14:50:03;;;;;;;9.23;5.65;;;;;;;19.20;21.42;99131.91;4953935;28;20058;-70
2021/04/24 14:52:28;;;;;;;11.55;5.20;;;;;;;20.67;20.24;99114.81;4954045;28;20027;-70
2021/04/24 14:54:54;;;;;;;11.45;5.50;;;;;;;20.83;20.87;99114.00;4967816;28;20027;-70
2021/04/24 14:57:19;;;;;;;12.10;5.63;;;;;;;21.15;19.68;99120.97;4956764;28;20032;-70
2021/04/24 14:59:44;;;;;;;8.02;5.60;;;;;;;21.04;20.24;99113.69;4967966;28;20059;-71
2021/04/24 15:02:10;;;;;;;8.93;5.60;;;;;;;20.79;19.73;99116.81;4960860;28;20034;-70
2021/04/24 15:04:35;;;;;;;10.90;5.63;;;;;;;20.63;20.50;99115.91;4961449;28;20038;-69
2021/04/24 15:07:02;;;;;;;11.32;5.40;;;;;;;20.34;18.71;99113.97;4968801;28;20031;-69
2021/04/24 15:09:27;;;;;;;12.30;5.47;;;;;;;19.77;20.14;99117.72;4956946;28;20122;-69
2021/04/24 15:11:53;;;;;;;6.95;4.88;;;;;;;20.42;19.74;99109.16;4967108;28;20043;-69
2021/04/24 15:14:18;;;;;;;10.57;5.45;;;;;;;20.12;19.89;99101.94;4968197;28;20379;-69
2021/04/24 15:16:45;;;;;;;7.80;4.75;;;;;;;19.74;20.50;99107.34;4957512;28;20051;-71
2021/04/24 15:19:11;;;;;;;9.02;5.57;;;;;;;19.79;20.77;99104.50;4953575;28;20429;-72
2021/04/24 15:21:39;;;;;;;12.05;5.88;;;;;;;20.88;20.00;99090.88;4957352;28;20022;-71
2021/04/24 15:24:05;;;;;;;14.55;6.05;;;;;;;20.14;20.74;99094.78;4965380;28;20023;-72
2021/04/24 15:26:30;;;;;;;8.23;4.95;;;;;;;20.60;20.96;99100.31;4964419;28;20023;-72
2021/04/24 15:28:56;;;;;;;9.77;5.38;;;;;;;19.91;19.98;99103.00;4958790;28;20054;-72
2021/04/24 15:31:23;;;;;;;10.98;6.25;;;;;;;19.54;20.00;99104.00;4952107;28;20035;-69
2021/04/24 15:33:50;;;;;;;9.68;5.10;;;;;;;20.31;20.46;99100.94;4953633;28;20031;-69
2021/04/24 15:36:16;;;;;;;9.68;4.47;;;;;;;20.53;20.96;99096.28;4962429;28;20027;-69
2021/04/24 15:38:41;;;;;;;8.68;5.38;;;;;;;19.67;19.62;99100.69;4961000;28;20035;-71
2021/04/24 15:41:06;;;;;;;7.20;4.45;;;;;;;19.43;19.59;99097.47;4969048;28;20399;-72
2021/04/24 15:43:32;;;;;;;9.02;5.18;;;;;;;19.96;19.72;99087.84;4956876;28;20074;-68
2021/04/24 15:45:57;;;;;;;10.27;5.20;;;;;;;20.74;20.21;99084.63;4966145;28;20027;-68
2021/04/24 15:48:22;;;;;;;5.65;3.75;;;;;;;20.95;19.04;99087.84;4953587;28;20503;-68
2021/04/24 15:50:48;;;;;;;8.10;4.35;;;;;;;20.93;18.71;99088.84;4953307;28;20027;-68
2021/04/24 15:53:13;;;;;;;11.77;6.43;;;;;;;20.58;18.67;99091.63;4969184;28;20030;-68
2021/04/24 15:55:40;;;;;;;6.53;3.85;;;;;;;20.54;19.08;99083.03;4957624;28;20022;-72
2021/04/24 15:58:06;;;;;;;10.05;4.82;;;;;;;20.62;19.43;99085.25;4964960;28;20023;-72
2021/04/24 16:00:33;;;;;;;8.68;4.68;;;;;;;19.92;20.17;99078.41;4953275;28;20031;-72
2021/04/24 16:02:59;;;;;;;6.47;3.72;;;;;;;20.39;20.37;99088.25;4967734;28;20544;-71
2021/04/24 16:05:26;;;;;;;7.55;4.13;;;;;;;20.45;18.72;99088.78;4956537;28;20031;-72
2021/04/24 16:07:53;;;;;;;10.77;3.80;;;;;;;19.27;19.30;99097.38;4967407;28;20030;-71
2021/04/24 16:10:19;;;;;;;4.40;3.45;;;;;;;18.88;19.04;99094.00;4965840;28;20089;-72
2021/04/24 16:12:45;;;;;;;5.30;3.45;;;;;;;19.55;19.88;99090.75;4965225;28;20031;-69
2021/04/24 16:15:13;;;;;;;4.90;3.50;;;;;;;19.76;19.76;99089.72;4975664;28;20101;-69
2021/04/24 16:17:38;;;;;;;8.05;3.20;;;;;;;19.57;18.58;99088.91;4956800;28;20081;-69
2021/04/24 16:20:06;;;;;;;9.40;3.95;;;;;;;19.54;19.05;99078.56;4963793;28;20035;-68
2021/04/24 16:22:31;;;;;;;6.80;2.92;;;;;;;19.75;18.79;99077.50;4965019;28;20030;-68
2021/04/24 16:24:57;;;;;;;6.65;3.53;;;;;;;19.84;18.67;99081.44;4970711;28;20415;-71
2021/04/24 16:27:22;;;;;;;4.28;3.22;;;;;;;19.85;19.35;99079.66;4960066;28;20041;-72
2021/04/24 16:29:48;;;;;;;7.53;3.72;;;;;;;19.53;18.56;99082.09;4970351;28;20094;-71
2021/04/24 16:32:13;;;;;;;10.65;3.38;;;;;;;18.82;18.03;99084.66;4965132;28;20030;-72
2021/04/24 16:34:38;;;;;;;6.22;3.13;;;;;;;19.34;18.86;99086.53;4963763;28;20027;-71
2021/04/24 16:37:04;;;;;;;3.78;2.65;;;;;;;19.63;18.39;99075.50;4971599;28;20041;-71
2021/04/24 16:39:29;;;;;;;6.07;3.33;;;;;;;19.26;19.48;99072.03;4956528;28;20038;-68
2021/04/24 16:41:56;;;;;;;5.13;3.20;;;;;;;18.86;19.43;99080.13;4956078;28;20027;-73
2021/04/24 16:44:21;;;;;;;5.10;3.50;;;;;;;18.98;19.37;99079.53;4956320;28;20031;-73
2021/04/24 16:46:47;;;;;;;5.10;2.88;;;;;;;18.54;18.90;99069.28;4956201;28;20498;-74
2021/04/24 16:49:13;;;;;;;4.63;3.45;;;;;;;18.77;19.08;99075.28;4956434;28;20484;-70
2021/04/24 16:51:38;;;;;;;3.53;2.92;;;;;;;19.03;19.28;99071.44;4955902;28;20020;-70
2021/04/24 16:54:04;;;;;;;5.20;2.85;;;;;;;19.38;19.19;99061.81;4956116;28;20354;-70
2021/04/24 16:56:29;;;;;;;5.45;2.80;;;;;;;18.57;19.28;99069.16;4956190;28;20106;-72
2021/04/24 16:58:55;;;;;;;4.53;3.20;;;;;;;18.92;19.07;99077.19;4956161;28;20023;-72
2021/04/24 17:01:20;;;;;;;7.63;3.30;;;;;;;18.59;19.62;99077.78;4955960;28;20032;-69
2021/04/24 17:03:45;;;;;;;4.88;3.05;;;;;;;18.94;19.83;99067.44;4955763;28;20365;-69
2021/04/24 17:06:12;;;;;;;8.20;2.58;;;;;;;19.23;19.13;99059.03;4955885;28;20540;-70
2021/04/24 17:08:37;;;;;;;6.65;2.45;;;;;;;19.21;20.29;99066.13;4956085;28;20027;-70
2021/04/24 17:11:03;;;;;;;5.28;2.80;;;;;;;19.51;19.95;99057.66;4955693;29;20053;-70
2021/04/24 17:13:30;;;;;;;4.80;2.40;;;;;;;19.35;19.11;99062.84;4956116;28;20019;-70
2021/04/24 17:15:55;;;;;;;6.90;2.60;;;;;;;19.14;20.16;99062.09;4955680;28;20027;-70
2021/04/24 17:18:20;;;;;;;3.25;2.55;;;;;;;18.68;20.69;99072.16;4955558;28;20433;-70
2021/04/24 17:20:46;;;;;;;9.77;2.75;;;;;;;18.55;21.01;99068.34;4955520;28;20023;-70
2021/04/24 17:23:11;;;;;;;5.35;2.47;;;;;;;18.34;20.54;99074.59;4955700;28;20034;-70
2021/04/24 17:25:40;;;;;;;5.53;2.45;;;;;;;18.09;21.21;99075.69;4955701;28;20059;-70
2021/04/24 17:28:06;;;;;;;6.72;3.60;;;;;;;18.32;21.83;99068.53;4955699;28;20038;-70
2021/04/24 17:30:31;;;;;;;4.07;2.33;;;;;;;18.13;21.01;99069.38;4955522;28;20415;-70
2021/04/24 17:32:57;;;;;;;5.88;2.63;;;;;;;17.85;21.96;99069.72;4955458;28;20035;-70
2021/04/24 17:35:22;;;;;;;9.98;3.10;;;;;;;17.93;22.25;99058.88;4955407;28;20122;-70
2021/04/24 17:37:47;;;;;;;2.85;2.17;;;;;;;17.91;22.67;99063.38;4955313;28;20031;-70
2021/04/24 17:40:13;;;;;;;6.22;2.40;;;;;;;17.75;23.08;99057.94;4955258;28;20035;-70
2021/04/24 17:42:39;;;;;;;8.02;2.13;;;;;;;17.41;23.73;99058.47;4955525;28;20374;-70
2021/04/24 17:45:09;;;;;;;4.13;3.25;;;;;;;17.24;23.87;99071.38;4955274;28;20027;-70
2021/04/24 17:47:35;;;;;;;4.20;2.92;;;;;;;17.52;22.61;99064.09;4955064;28;20039;-73
2021/04/24 17:50:00;;;;;;;8.18;3.05;;;;;;;17.42;23.01;99063.63;4954986;28;20038;-70
2021/04/24 17:52:26;;;;;;;8.82;2.60;;;;;;;17.10;23.94;99064.94;4955333;28;20023;-70
2021/04/24 17:54:51;;;;;;;6.90;2.88;;;;;;;16.81;24.61;99068.69;4955224;28;20019;-70
2021/04/24 17:57:16;;;;;;;4.88;2.92;;;;;;;16.49;26.33;99072.50;4954204;28;20541;-70
2021/04/24 17:59:42;;;;;;;10.48;3.72;;;;;;;16.24;26.74;99077.78;4955100;28;20121;-70
2021/04/24 18:02:07;;;;;;;8.63;2.92;;;;;;;15.86;28.26;99073.94;4965188;28;20078;-69
2021/04/24 18:04:33;;;;;;;9.68;3.13;;;;;;;15.43;29.24;99083.16;4954883;28;20027;-72
2021/04/24 18:06:58;;;;;;;6.72;2.80;;;;;;;15.27;29.35;99082.78;4954694;28;20034;-72
2021/04/24 18:09:23;;;;;;;3.92;2.20;;;;;;;14.97;29.99;99084.63;4954927;28;20027;-70
2021/04/24 18:11:49;;;;;;;6.25;2.58;;;;;;;14.89;29.35;99082.25;4954685;28;20030;-70
2021/04/24 18:14:14;;;;;;;4.40;2.25;;;;;;;14.76;30.11;99080.06;4954775;28;20027;-70
2021/04/24 18:16:40;;;;;;;6.05;2.30;;;;;;;14.69;30.32;99084.59;4954574;28;20027;-70
2021/04/24 18:19:06;;;;;;;5.18;2.00;;;;;;;14.50;30.90;99079.06;4954479;28;20162;-70
2021/04/24 18:21:32;;;;;;;4.50;2.22;;;;;;;14.40;31.49;99088.88;4954531;28;20038;-72
2021/04/24 18:23:58;;;;;;;22.00;2.90;;;;;;;14.30;31.71;99086.56;4954418;28;20617;-70
2021/04/24 18:26:23;;;;;;;7.55;1.98;;;;;;;14.07;32.21;99085.47;4954634;28;20039;-70
2021/04/24 18:28:49;;;;;;;4.22;2.15;;;;;;;14.01;31.82;99084.75;4954542;28;20030;-70
2021/04/24 18:31:16;;;;;;;6.55;2.33;;;;;;;13.75;33.37;99093.28;4953671;28;20547;-72
2021/04/24 18:33:42;;;;;;;4.53;2.58;;;;;;;13.59;34.04;99092.81;4952994;28;20040;-72